sensor_id;sensor_type;location;lat;lon;timestamp;P1;durP1;ratioP1;P2;durP2;ratioP2
33138;SDS011;19501;50.948;5.316;2024-03-23T00:55:41;25.13;;;5.80;;
33138;SDS011;19501;50.948;5.316;2024-03-23T00:58:07;21.17;;;5.68;;
33138;SDS011;19501;50.948;5.316;2024-03-23T01:00:33;21.40;;;5.43;;
33138;SDS011;19501;50.948;5.316;2024-03-23T01:03:01;18.98;;;5.47;;
33138;SDS011;19501;50.948;5.316;2024-03-23T01:05:26;23.85;;;5.60;;
33138;SDS011;19501;50.948;5.316;2024-03-23T01:07:52;23.50;;;6.18;;
33138;SDS011;19501;50.948;5.316;2024-03-23T01:10:18;23.52;;;6.32;;
33138;SDS011;19501;50.948;5.316;2024-03-23T01:12:43;27.58;;;5.70;;
33138;SDS011;19501;50.948;5.316;2024-03-23T01:15:09;31.08;;;6.40;;
33138;SDS011;19501;50.948;5.316;2024-03-23T01:17:35;22.00;;;5.50;;
33138;SDS011;19501;50.948;5.316;2024-03-23T01:20:00;23.42;;;5.47;;
33138;SDS011;19501;50.948;5.316;2024-03-23T01:22:26;28.25;;;6.55;;
33138;SDS011;19501;50.948;5.316;2024-03-23T01:24:51;27.02;;;7.07;;
33138;SDS011;19501;50.948;5.316;2024-03-23T01:27:17;23.23;;;5.90;;
33138;SDS011;19501;50.948;5.316;2024-03-23T01:29:43;24.85;;;5.68;;
33138;SDS011;19501;50.948;5.316;2024-03-23T01:32:09;19.02;;;5.20;;
33138;SDS011;19501;50.948;5.316;2024-03-23T01:34:34;20.75;;;5.32;;
33138;SDS011;19501;50.948;5.316;2024-03-23T01:37:00;23.92;;;5.45;;
33138;SDS011;19501;50.948;5.316;2024-03-23T01:39:26;22.05;;;5.80;;
33138;SDS011;19501;50.948;5.316;2024-03-23T01:41:51;21.08;;;6.20;;
33138;SDS011;19501;50.948;5.316;2024-03-23T01:44:17;23.35;;;5.63;;
33138;SDS011;19501;50.948;5.316;2024-03-23T01:46:43;24.70;;;5.60;;
33138;SDS011;19501;50.948;5.316;2024-03-23T01:49:09;16.15;;;4.65;;
33138;SDS011;19501;50.948;5.316;2024-03-23T01:51:35;25.67;;;5.97;;
33138;SDS011;19501;50.948;5.316;2024-03-23T01:54:02;27.58;;;5.97;;
33138;SDS011;19501;50.948;5.316;2024-03-23T01:56:29;22.05;;;5.63;;
33138;SDS011;19501;50.948;5.316;2024-03-23T01:58:57;21.45;;;6.05;;
33138;SDS011;19501;50.948;5.316;2024-03-23T02:01:26;26.02;;;6.53;;
33138;SDS011;19501;50.948;5.316;2024-03-23T02:03:51;19.42;;;5.32;;
33138;SDS011;19501;50.948;5.316;2024-03-23T02:06:17;20.92;;;6.00;;
33138;SDS011;19501;50.948;5.316;2024-03-23T02:08:43;20.42;;;5.57;;
33138;SDS011;19501;50.948;5.316;2024-03-23T02:11:09;30.88;;;5.93;;
33138;SDS011;19501;50.948;5.316;2024-03-23T02:13:34;27.30;;;5.60;;
33138;SDS011;19501;50.948;5.316;2024-03-23T02:16:00;21.83;;;5.88;;
33138;SDS011;19501;50.948;5.316;2024-03-23T02:18:26;30.00;;;6.18;;
33138;SDS011;19501;50.948;5.316;2024-03-23T02:20:51;25.67;;;5.97;;
33138;SDS011;19501;50.948;5.316;2024-03-23T02:23:17;23.92;;;5.90;;
33138;SDS011;19501;50.948;5.316;2024-03-23T02:25:43;26.30;;;7.00;;
33138;SDS011;19501;50.948;5.316;2024-03-23T02:28:09;27.20;;;6.22;;
33138;SDS011;19501;50.948;5.316;2024-03-23T02:30:36;21.92;;;6.13;;
33138;SDS011;19501;50.948;5.316;2024-03-23T02:33:02;25.90;;;5.85;;
33138;SDS011;19501;50.948;5.316;2024-03-23T02:35:28;26.60;;;6.07;;
33138;SDS011;19501;50.948;5.316;2024-03-23T02:37:54;26.77;;;6.20;;
33138;SDS011;19501;50.948;5.316;2024-03-23T02:40:21;25.73;;;5.65;;
33138;SDS011;19501;50.948;5.316;2024-03-23T02:42:48;18.13;;;5.30;;
33138;SDS011;19501;50.948;5.316;2024-03-23T02:45:13;21.70;;;5.32;;
33138;SDS011;19501;50.948;5.316;2024-03-23T02:47:39;19.77;;;5.25;;
33138;SDS011;19501;50.948;5.316;2024-03-23T02:50:05;25.23;;;6.00;;
33138;SDS011;19501;50.948;5.316;2024-03-23T02:52:31;27.05;;;6.55;;
33138;SDS011;19501;50.948;5.316;2024-03-23T02:54:56;25.38;;;5.80;;
33138;SDS011;19501;50.948;5.316;2024-03-23T02:57:22;37.95;;;6.82;;
33138;SDS011;19501;50.948;5.316;2024-03-23T02:59:48;25.92;;;6.47;;
33138;SDS011;19501;50.948;5.316;2024-03-23T03:02:14;27.38;;;5.97;;
33138;SDS011;19501;50.948;5.316;2024-03-23T03:04:40;25.27;;;6.20;;
33138;SDS011;19501;50.948;5.316;2024-03-23T03:07:06;30.08;;;6.38;;
33138;SDS011;19501;50.948;5.316;2024-03-23T03:09:31;23.33;;;6.20;;
33138;SDS011;19501;50.948;5.316;2024-03-23T03:11:58;21.17;;;6.00;;
33138;SDS011;19501;50.948;5.316;2024-03-23T03:14:23;24.25;;;6.45;;
33138;SDS011;19501;50.948;5.316;2024-03-23T03:16:49;25.48;;;6.78;;
33138;SDS011;19501;50.948;5.316;2024-03-23T03:19:14;20.90;;;5.88;;
33138;SDS011;19501;50.948;5.316;2024-03-23T03:21:41;27.40;;;6.65;;
33138;SDS011;19501;50.948;5.316;2024-03-23T03:24:07;28.42;;;6.60;;
33138;SDS011;19501;50.948;5.316;2024-03-23T03:26:33;23.60;;;6.32;;
33138;SDS011;19501;50.948;5.316;2024-03-23T03:28:58;19.70;;;6.00;;
33138;SDS011;19501;50.948;5.316;2024-03-23T03:31:24;29.10;;;5.47;;
33138;SDS011;19501;50.948;5.316;2024-03-23T03:33:50;22.60;;;5.43;;
33138;SDS011;19501;50.948;5.316;2024-03-23T03:36:18;29.08;;;7.18;;
33138;SDS011;19501;50.948;5.316;2024-03-23T03:38:44;19.80;;;5.38;;
33138;SDS011;19501;50.948;5.316;2024-03-23T03:41:12;18.27;;;5.38;;
33138;SDS011;19501;50.948;5.316;2024-03-23T03:43:38;24.20;;;5.68;;
33138;SDS011;19501;50.948;5.316;2024-03-23T03:46:04;19.85;;;4.65;;
33138;SDS011;19501;50.948;5.316;2024-03-23T03:48:30;17.60;;;5.13;;
33138;SDS011;19501;50.948;5.316;2024-03-23T03:50:55;26.85;;;5.45;;
33138;SDS011;19501;50.948;5.316;2024-03-23T03:53:21;27.55;;;5.35;;
33138;SDS011;19501;50.948;5.316;2024-03-23T03:55:47;21.33;;;5.18;;
33138;SDS011;19501;50.948;5.316;2024-03-23T03:58:12;18.77;;;4.88;;
33138;SDS011;19501;50.948;5.316;2024-03-23T04:00:38;23.38;;;5.40;;
33138;SDS011;19501;50.948;5.316;2024-03-23T04:03:04;26.90;;;5.65;;
33138;SDS011;19501;50.948;5.316;2024-03-23T04:05:30;26.15;;;5.97;;
33138;SDS011;19501;50.948;5.316;2024-03-23T04:07:55;17.75;;;5.13;;
33138;SDS011;19501;50.948;5.316;2024-03-23T04:10:21;20.42;;;5.60;;
33138;SDS011;19501;50.948;5.316;2024-03-23T04:12:47;18.52;;;4.97;;
33138;SDS011;19501;50.948;5.316;2024-03-23T04:15:13;23.42;;;5.38;;
33138;SDS011;19501;50.948;5.316;2024-03-23T04:17:39;23.95;;;5.40;;
33138;SDS011;19501;50.948;5.316;2024-03-23T04:20:06;22.13;;;6.00;;
33138;SDS011;19501;50.948;5.316;2024-03-23T04:22:36;19.75;;;5.53;;
33138;SDS011;19501;50.948;5.316;2024-03-23T04:25:02;18.08;;;5.53;;
33138;SDS011;19501;50.948;5.316;2024-03-23T04:27:32;27.15;;;6.07;;
33138;SDS011;19501;50.948;5.316;2024-03-23T04:29:57;20.48;;;6.00;;
33138;SDS011;19501;50.948;5.316;2024-03-23T04:32:25;22.27;;;6.25;;
33138;SDS011;19501;50.948;5.316;2024-03-23T04:34:51;25.00;;;6.57;;
33138;SDS011;19501;50.948;5.316;2024-03-23T04:37:17;27.30;;;6.20;;
33138;SDS011;19501;50.948;5.316;2024-03-23T04:39:43;25.05;;;6.65;;
33138;SDS011;19501;50.948;5.316;2024-03-23T04:42:08;21.25;;;6.63;;
33138;SDS011;19501;50.948;5.316;2024-03-23T04:44:34;30.30;;;8.40;;
33138;SDS011;19501;50.948;5.316;2024-03-23T04:47:00;30.50;;;8.57;;
33138;SDS011;19501;50.948;5.316;2024-03-23T04:49:26;25.38;;;7.85;;
33138;SDS011;19501;50.948;5.316;2024-03-23T04:51:51;21.25;;;6.70;;
33138;SDS011;19501;50.948;5.316;2024-03-23T04:54:17;30.58;;;7.82;;
33138;SDS011;19501;50.948;5.316;2024-03-23T04:56:43;22.27;;;7.57;;
33138;SDS011;19501;50.948;5.316;2024-03-23T04:59:08;31.98;;;8.90;;
33138;SDS011;19501;50.948;5.316;2024-03-23T05:01:34;30.98;;;8.35;;
33138;SDS011;19501;50.948;5.316;2024-03-23T05:04:00;28.27;;;8.07;;
33138;SDS011;19501;50.948;5.316;2024-03-23T05:06:26;28.30;;;8.10;;
33138;SDS011;19501;50.948;5.316;2024-03-23T05:08:52;26.27;;;7.72;;
33138;SDS011;19501;50.948;5.316;2024-03-23T05:11:17;30.77;;;8.30;;
33138;SDS011;19501;50.948;5.316;2024-03-23T05:13:44;31.48;;;8.57;;
33138;SDS011;19501;50.948;5.316;2024-03-23T05:16:10;29.17;;;9.20;;
33138;SDS011;19501;50.948;5.316;2024-03-23T05:18:36;29.75;;;7.60;;
33138;SDS011;19501;50.948;5.316;2024-03-23T05:21:01;29.50;;;8.45;;
33138;SDS011;19501;50.948;5.316;2024-03-23T05:23:30;33.47;;;9.00;;
33138;SDS011;19501;50.948;5.316;2024-03-23T05:25:55;35.28;;;10.48;;
33138;SDS011;19501;50.948;5.316;2024-03-23T05:28:22;32.17;;;9.27;;
33138;SDS011;19501;50.948;5.316;2024-03-23T05:30:53;36.70;;;11.50;;
33138;SDS011;19501;50.948;5.316;2024-03-23T05:33:20;32.10;;;10.65;;
33138;SDS011;19501;50.948;5.316;2024-03-23T05:35:46;35.75;;;11.77;;
33138;SDS011;19501;50.948;5.316;2024-03-23T05:38:12;37.95;;;13.13;;
33138;SDS011;19501;50.948;5.316;2024-03-23T05:40:39;31.88;;;11.25;;
33138;SDS011;19501;50.948;5.316;2024-03-23T05:43:08;36.25;;;11.25;;
33138;SDS011;19501;50.948;5.316;2024-03-23T05:45:34;46.78;;;12.82;;
33138;SDS011;19501;50.948;5.316;2024-03-23T05:48:00;35.78;;;12.43;;
33138;SDS011;19501;50.948;5.316;2024-03-23T05:50:25;30.38;;;10.75;;
33138;SDS011;19501;50.948;5.316;2024-03-23T05:52:51;36.45;;;12.63;;
33138;SDS011;19501;50.948;5.316;2024-03-23T05:55:17;31.30;;;11.93;;
33138;SDS011;19501;50.948;5.316;2024-03-23T05:57:43;38.13;;;12.75;;
33138;SDS011;19501;50.948;5.316;2024-03-23T06:00:09;40.00;;;12.70;;
33138;SDS011;19501;50.948;5.316;2024-03-23T06:02:40;40.42;;;12.15;;
33138;SDS011;19501;50.948;5.316;2024-03-23T06:05:12;36.67;;;13.10;;
33138;SDS011;19501;50.948;5.316;2024-03-23T06:07:40;39.25;;;12.32;;
33138;SDS011;19501;50.948;5.316;2024-03-23T06:10:06;41.80;;;12.68;;
33138;SDS011;19501;50.948;5.316;2024-03-23T06:12:32;35.95;;;11.68;;
33138;SDS011;19501;50.948;5.316;2024-03-23T06:14:57;41.78;;;11.88;;
33138;SDS011;19501;50.948;5.316;2024-03-23T06:17:23;36.55;;;11.88;;
33138;SDS011;19501;50.948;5.316;2024-03-23T06:19:49;37.60;;;11.52;;
33138;SDS011;19501;50.948;5.316;2024-03-23T06:22:16;36.60;;;11.68;;
33138;SDS011;19501;50.948;5.316;2024-03-23T06:24:42;33.42;;;11.30;;
33138;SDS011;19501;50.948;5.316;2024-03-23T06:27:10;40.15;;;11.30;;
33138;SDS011;19501;50.948;5.316;2024-03-23T06:29:35;40.03;;;11.38;;
33138;SDS011;19501;50.948;5.316;2024-03-23T06:32:01;38.45;;;10.35;;
33138;SDS011;19501;50.948;5.316;2024-03-23T06:34:28;30.05;;;9.85;;
33138;SDS011;19501;50.948;5.316;2024-03-23T06:36:54;31.92;;;10.07;;
33138;SDS011;19501;50.948;5.316;2024-03-23T06:39:19;34.67;;;10.98;;
33138;SDS011;19501;50.948;5.316;2024-03-23T06:41:51;36.83;;;10.00;;
33138;SDS011;19501;50.948;5.316;2024-03-23T06:44:18;43.30;;;12.48;;
33138;SDS011;19501;50.948;5.316;2024-03-23T06:46:44;36.85;;;11.07;;
33138;SDS011;19501;50.948;5.316;2024-03-23T06:49:10;34.72;;;10.25;;
33138;SDS011;19501;50.948;5.316;2024-03-23T06:51:36;39.92;;;11.07;;
33138;SDS011;19501;50.948;5.316;2024-03-23T06:54:03;41.67;;;12.73;;
33138;SDS011;19501;50.948;5.316;2024-03-23T06:56:29;36.95;;;11.82;;
33138;SDS011;19501;50.948;5.316;2024-03-23T06:58:55;34.50;;;11.02;;
33138;SDS011;19501;50.948;5.316;2024-03-23T07:01:21;30.33;;;10.32;;
33138;SDS011;19501;50.948;5.316;2024-03-23T07:03:47;34.40;;;10.98;;
33138;SDS011;19501;50.948;5.316;2024-03-23T07:06:13;33.10;;;11.52;;
33138;SDS011;19501;50.948;5.316;2024-03-23T07:08:38;38.45;;;10.40;;
33138;SDS011;19501;50.948;5.316;2024-03-23T07:11:04;30.17;;;9.82;;
33138;SDS011;19501;50.948;5.316;2024-03-23T07:13:30;28.77;;;8.98;;
33138;SDS011;19501;50.948;5.316;2024-03-23T07:15:55;28.67;;;9.68;;
33138;SDS011;19501;50.948;5.316;2024-03-23T07:18:22;38.03;;;11.25;;
33138;SDS011;19501;50.948;5.316;2024-03-23T07:20:57;37.47;;;10.93;;
33138;SDS011;19501;50.948;5.316;2024-03-23T07:23:26;27.42;;;10.32;;
33138;SDS011;19501;50.948;5.316;2024-03-23T07:25:58;29.40;;;10.82;;
33138;SDS011;19501;50.948;5.316;2024-03-23T07:28:24;32.92;;;10.43;;
33138;SDS011;19501;50.948;5.316;2024-03-23T07:33:48;30.55;;;10.32;;
33138;SDS011;19501;50.948;5.316;2024-03-23T07:36:14;34.13;;;9.95;;
33138;SDS011;19501;50.948;5.316;2024-03-23T07:38:40;27.55;;;8.70;;
33138;SDS011;19501;50.948;5.316;2024-03-23T07:41:10;27.85;;;8.35;;
33138;SDS011;19501;50.948;5.316;2024-03-23T07:43:39;32.92;;;9.75;;
33138;SDS011;19501;50.948;5.316;2024-03-23T07:46:07;28.02;;;7.50;;
33138;SDS011;19501;50.948;5.316;2024-03-23T07:48:33;24.67;;;6.78;;
33138;SDS011;19501;50.948;5.316;2024-03-23T07:51:03;24.42;;;6.97;;
33138;SDS011;19501;50.948;5.316;2024-03-23T07:53:33;21.55;;;6.47;;
33138;SDS011;19501;50.948;5.316;2024-03-23T07:56:01;30.77;;;6.95;;
33138;SDS011;19501;50.948;5.316;2024-03-23T07:58:35;23.45;;;6.28;;
33138;SDS011;19501;50.948;5.316;2024-03-23T08:01:11;22.55;;;5.03;;
33138;SDS011;19501;50.948;5.316;2024-03-23T08:03:40;24.35;;;6.13;;
33138;SDS011;19501;50.948;5.316;2024-03-23T08:06:10;21.15;;;5.55;;
33138;SDS011;19501;50.948;5.316;2024-03-23T08:08:39;21.90;;;5.18;;
33138;SDS011;19501;50.948;5.316;2024-03-23T08:11:06;21.88;;;5.07;;
33138;SDS011;19501;50.948;5.316;2024-03-23T08:13:33;22.38;;;4.90;;
33138;SDS011;19501;50.948;5.316;2024-03-23T08:16:00;28.00;;;5.38;;
33138;SDS011;19501;50.948;5.316;2024-03-23T08:18:26;24.83;;;4.78;;
33138;SDS011;19501;50.948;5.316;2024-03-23T08:20:58;17.13;;;4.60;;
33138;SDS011;19501;50.948;5.316;2024-03-23T08:23:25;17.15;;;4.78;;
33138;SDS011;19501;50.948;5.316;2024-03-23T08:25:52;23.85;;;5.45;;
33138;SDS011;19501;50.948;5.316;2024-03-23T08:28:22;22.25;;;4.32;;
33138;SDS011;19501;50.948;5.316;2024-03-23T08:30:47;24.95;;;4.93;;
33138;SDS011;19501;50.948;5.316;2024-03-23T08:33:14;14.77;;;4.40;;
33138;SDS011;19501;50.948;5.316;2024-03-23T08:35:40;16.52;;;3.90;;
33138;SDS011;19501;50.948;5.316;2024-03-23T08:38:06;21.92;;;5.13;;
33138;SDS011;19501;50.948;5.316;2024-03-23T08:40:32;17.23;;;4.68;;
33138;SDS011;19501;50.948;5.316;2024-03-23T08:42:58;17.27;;;3.63;;
33138;SDS011;19501;50.948;5.316;2024-03-23T08:45:26;14.25;;;4.00;;
33138;SDS011;19501;50.948;5.316;2024-03-23T08:47:54;15.10;;;4.22;;
33138;SDS011;19501;50.948;5.316;2024-03-23T08:50:20;17.77;;;4.07;;
33138;SDS011;19501;50.948;5.316;2024-03-23T08:52:46;18.00;;;4.72;;
33138;SDS011;19501;50.948;5.316;2024-03-23T08:55:12;16.42;;;4.82;;
33138;SDS011;19501;50.948;5.316;2024-03-23T08:57:38;19.90;;;4.93;;
33138;SDS011;19501;50.948;5.316;2024-03-23T09:00:04;21.23;;;5.03;;
33138;SDS011;19501;50.948;5.316;2024-03-23T09:02:33;14.55;;;3.88;;
33138;SDS011;19501;50.948;5.316;2024-03-23T09:04:59;17.85;;;4.43;;
33138;SDS011;19501;50.948;5.316;2024-03-23T09:07:29;18.88;;;3.97;;
33138;SDS011;19501;50.948;5.316;2024-03-23T09:09:55;19.13;;;4.40;;
33138;SDS011;19501;50.948;5.316;2024-03-23T09:12:21;19.20;;;3.85;;
33138;SDS011;19501;50.948;5.316;2024-03-23T09:14:50;23.98;;;4.55;;
33138;SDS011;19501;50.948;5.316;2024-03-23T09:17:15;15.10;;;3.80;;
33138;SDS011;19501;50.948;5.316;2024-03-23T09:19:41;13.10;;;3.15;;
33138;SDS011;19501;50.948;5.316;2024-03-23T09:22:07;19.05;;;4.07;;
33138;SDS011;19501;50.948;5.316;2024-03-23T09:24:32;16.67;;;4.13;;
33138;SDS011;19501;50.948;5.316;2024-03-23T09:26:58;16.95;;;4.22;;
33138;SDS011;19501;50.948;5.316;2024-03-23T09:29:23;18.15;;;4.25;;
33138;SDS011;19501;50.948;5.316;2024-03-23T09:31:49;16.85;;;4.25;;
33138;SDS011;19501;50.948;5.316;2024-03-23T09:34:14;24.38;;;4.47;;
33138;SDS011;19501;50.948;5.316;2024-03-23T09:36:40;17.60;;;4.60;;
33138;SDS011;19501;50.948;5.316;2024-03-23T09:39:06;21.05;;;4.45;;
33138;SDS011;19501;50.948;5.316;2024-03-23T09:41:34;16.70;;;3.72;;
33138;SDS011;19501;50.948;5.316;2024-03-23T09:44:00;14.68;;;3.88;;
33138;SDS011;19501;50.948;5.316;2024-03-23T09:46:26;11.52;;;3.38;;
33138;SDS011;19501;50.948;5.316;2024-03-23T09:48:53;18.75;;;3.55;;
33138;SDS011;19501;50.948;5.316;2024-03-23T09:51:20;23.33;;;3.80;;
33138;SDS011;19501;50.948;5.316;2024-03-23T09:53:46;15.98;;;3.85;;
33138;SDS011;19501;50.948;5.316;2024-03-23T09:56:12;19.38;;;4.05;;
33138;SDS011;19501;50.948;5.316;2024-03-23T09:58:38;17.20;;;4.45;;
33138;SDS011;19501;50.948;5.316;2024-03-23T10:01:04;17.02;;;4.38;;
33138;SDS011;19501;50.948;5.316;2024-03-23T10:03:30;13.82;;;4.72;;
33138;SDS011;19501;50.948;5.316;2024-03-23T10:06:02;17.50;;;4.55;;
33138;SDS011;19501;50.948;5.316;2024-03-23T10:08:30;16.38;;;4.63;;
33138;SDS011;19501;50.948;5.316;2024-03-23T10:10:58;15.25;;;4.80;;
33138;SDS011;19501;50.948;5.316;2024-03-23T10:13:44;20.02;;;5.78;;
33138;SDS011;19501;50.948;5.316;2024-03-23T10:16:11;23.20;;;5.95;;
33138;SDS011;19501;50.948;5.316;2024-03-23T10:18:47;18.60;;;4.85;;
33138;SDS011;19501;50.948;5.316;2024-03-23T10:21:14;18.33;;;4.65;;
33138;SDS011;19501;50.948;5.316;2024-03-23T10:23:43;16.27;;;4.28;;
33138;SDS011;19501;50.948;5.316;2024-03-23T10:26:23;10.32;;;3.40;;
33138;SDS011;19501;50.948;5.316;2024-03-23T10:31:18;13.85;;;3.33;;
33138;SDS011;19501;50.948;5.316;2024-03-23T10:33:47;14.68;;;3.47;;
33138;SDS011;19501;50.948;5.316;2024-03-23T10:36:13;11.98;;;3.45;;
33138;SDS011;19501;50.948;5.316;2024-03-23T10:38:40;15.90;;;3.83;;
33138;SDS011;19501;50.948;5.316;2024-03-23T10:41:08;15.60;;;3.85;;
33138;SDS011;19501;50.948;5.316;2024-03-23T10:43:35;11.93;;;3.60;;
33138;SDS011;19501;50.948;5.316;2024-03-23T10:46:03;13.23;;;3.67;;
33138;SDS011;19501;50.948;5.316;2024-03-23T10:48:29;13.75;;;3.97;;
33138;SDS011;19501;50.948;5.316;2024-03-23T10:50:58;10.23;;;3.03;;
33138;SDS011;19501;50.948;5.316;2024-03-23T10:53:25;2.83;;;1.63;;
33138;SDS011;19501;50.948;5.316;2024-03-23T10:55:52;6.32;;;2.70;;
33138;SDS011;19501;50.948;5.316;2024-03-23T10:58:23;15.25;;;3.70;;
33138;SDS011;19501;50.948;5.316;2024-03-23T11:00:56;7.47;;;3.38;;
33138;SDS011;19501;50.948;5.316;2024-03-23T11:03:33;15.00;;;3.50;;
33138;SDS011;19501;50.948;5.316;2024-03-23T11:06:00;15.68;;;4.03;;
33138;SDS011;19501;50.948;5.316;2024-03-23T11:11:16;14.82;;;4.15;;
33138;SDS011;19501;50.948;5.316;2024-03-23T11:13:49;17.77;;;4.50;;
33138;SDS011;19501;50.948;5.316;2024-03-23T11:16:25;16.70;;;4.22;;
33138;SDS011;19501;50.948;5.316;2024-03-23T11:22:00;13.27;;;3.63;;
33138;SDS011;19501;50.948;5.316;2024-03-23T11:24:27;16.98;;;4.25;;
33138;SDS011;19501;50.948;5.316;2024-03-23T11:26:55;14.18;;;3.75;;
33138;SDS011;19501;50.948;5.316;2024-03-23T11:29:20;12.50;;;3.25;;
33138;SDS011;19501;50.948;5.316;2024-03-23T11:31:47;11.65;;;3.25;;
33138;SDS011;19501;50.948;5.316;2024-03-23T11:34:18;6.82;;;2.53;;
33138;SDS011;19501;50.948;5.316;2024-03-23T11:36:44;15.35;;;3.00;;
33138;SDS011;19501;50.948;5.316;2024-03-23T11:39:11;9.32;;;2.95;;
33138;SDS011;19501;50.948;5.316;2024-03-23T11:41:48;9.88;;;3.53;;
33138;SDS011;19501;50.948;5.316;2024-03-23T11:44:17;9.52;;;3.42;;
33138;SDS011;19501;50.948;5.316;2024-03-23T11:46:49;14.30;;;3.97;;
33138;SDS011;19501;50.948;5.316;2024-03-23T11:52:07;12.80;;;3.83;;
33138;SDS011;19501;50.948;5.316;2024-03-23T11:54:33;15.73;;;4.10;;
33138;SDS011;19501;50.948;5.316;2024-03-23T11:59:34;12.00;;;4.03;;
33138;SDS011;19501;50.948;5.316;2024-03-23T12:04:41;4.07;;;1.50;;
33138;SDS011;19501;50.948;5.316;2024-03-23T12:09:47;5.45;;;2.00;;
33138;SDS011;19501;50.948;5.316;2024-03-23T12:12:29;5.85;;;1.92;;
33138;SDS011;19501;50.948;5.316;2024-03-23T12:15:06;8.60;;;2.47;;
33138;SDS011;19501;50.948;5.316;2024-03-23T12:17:33;5.05;;;2.42;;
33138;SDS011;19501;50.948;5.316;2024-03-23T12:19:59;9.73;;;3.22;;
33138;SDS011;19501;50.948;5.316;2024-03-23T12:22:25;10.45;;;3.40;;
33138;SDS011;19501;50.948;5.316;2024-03-23T12:24:51;11.38;;;2.90;;
33138;SDS011;19501;50.948;5.316;2024-03-23T12:27:20;11.40;;;3.13;;
33138;SDS011;19501;50.948;5.316;2024-03-23T12:29:46;8.07;;;2.88;;
33138;SDS011;19501;50.948;5.316;2024-03-23T12:32:12;7.43;;;2.55;;
33138;SDS011;19501;50.948;5.316;2024-03-23T12:34:39;10.45;;;3.50;;
33138;SDS011;19501;50.948;5.316;2024-03-23T12:37:05;13.77;;;3.85;;
33138;SDS011;19501;50.948;5.316;2024-03-23T12:39:34;14.57;;;4.22;;
33138;SDS011;19501;50.948;5.316;2024-03-23T12:42:00;14.50;;;4.18;;
33138;SDS011;19501;50.948;5.316;2024-03-23T12:44:27;13.13;;;4.38;;
33138;SDS011;19501;50.948;5.316;2024-03-23T12:46:53;11.52;;;3.20;;
33138;SDS011;19501;50.948;5.316;2024-03-23T12:49:21;13.20;;;3.90;;
33138;SDS011;19501;50.948;5.316;2024-03-23T12:51:54;12.40;;;3.65;;
33138;SDS011;19501;50.948;5.316;2024-03-23T12:54:24;17.67;;;3.83;;
33138;SDS011;19501;50.948;5.316;2024-03-23T12:56:50;7.50;;;3.33;;
33138;SDS011;19501;50.948;5.316;2024-03-23T12:59:15;15.88;;;3.60;;
33138;SDS011;19501;50.948;5.316;2024-03-23T13:01:44;9.05;;;2.38;;
33138;SDS011;19501;50.948;5.316;2024-03-23T13:04:10;7.72;;;2.60;;
33138;SDS011;19501;50.948;5.316;2024-03-23T13:06:36;9.65;;;2.50;;
33138;SDS011;19501;50.948;5.316;2024-03-23T13:09:02;7.55;;;2.92;;
33138;SDS011;19501;50.948;5.316;2024-03-23T13:11:30;9.40;;;2.70;;
33138;SDS011;19501;50.948;5.316;2024-03-23T13:13:56;13.15;;;3.28;;
33138;SDS011;19501;50.948;5.316;2024-03-23T13:16:21;18.10;;;3.80;;
33138;SDS011;19501;50.948;5.316;2024-03-23T13:18:49;13.50;;;3.03;;
33138;SDS011;19501;50.948;5.316;2024-03-23T13:21:15;16.83;;;3.35;;
33138;SDS011;19501;50.948;5.316;2024-03-23T13:23:41;15.68;;;3.83;;
33138;SDS011;19501;50.948;5.316;2024-03-23T13:26:08;13.27;;;3.78;;
33138;SDS011;19501;50.948;5.316;2024-03-23T13:28:34;13.77;;;3.17;;
33138;SDS011;19501;50.948;5.316;2024-03-23T13:31:01;11.48;;;2.97;;
33138;SDS011;19501;50.948;5.316;2024-03-23T13:33:28;14.48;;;3.03;;
33138;SDS011;19501;50.948;5.316;2024-03-23T13:35:57;9.88;;;3.00;;
33138;SDS011;19501;50.948;5.316;2024-03-23T13:38:23;9.55;;;2.75;;
33138;SDS011;19501;50.948;5.316;2024-03-23T13:40:51;8.48;;;2.85;;
33138;SDS011;19501;50.948;5.316;2024-03-23T13:43:18;9.57;;;2.83;;
33138;SDS011;19501;50.948;5.316;2024-03-23T13:45:44;9.13;;;2.38;;
33138;SDS011;19501;50.948;5.316;2024-03-23T13:48:11;10.88;;;2.67;;
33138;SDS011;19501;50.948;5.316;2024-03-23T13:50:37;6.88;;;2.28;;
33138;SDS011;19501;50.948;5.316;2024-03-23T13:53:02;7.72;;;2.25;;
33138;SDS011;19501;50.948;5.316;2024-03-23T13:55:28;8.43;;;2.38;;
33138;SDS011;19501;50.948;5.316;2024-03-23T13:57:54;5.30;;;2.22;;
33138;SDS011;19501;50.948;5.316;2024-03-23T14:00:19;8.82;;;2.42;;
33138;SDS011;19501;50.948;5.316;2024-03-23T14:02:45;5.25;;;2.10;;
33138;SDS011;19501;50.948;5.316;2024-03-23T14:05:11;7.05;;;2.40;;
33138;SDS011;19501;50.948;5.316;2024-03-23T14:07:39;5.78;;;2.42;;
33138;SDS011;19501;50.948;5.316;2024-03-23T14:10:04;7.50;;;2.60;;
33138;SDS011;19501;50.948;5.316;2024-03-23T14:12:35;10.13;;;2.90;;
33138;SDS011;19501;50.948;5.316;2024-03-23T14:15:04;5.75;;;1.77;;
33138;SDS011;19501;50.948;5.316;2024-03-23T14:17:30;6.38;;;1.40;;
33138;SDS011;19501;50.948;5.316;2024-03-23T14:19:56;5.85;;;1.90;;
33138;SDS011;19501;50.948;5.316;2024-03-23T14:22:25;4.93;;;1.83;;
33138;SDS011;19501;50.948;5.316;2024-03-23T14:24:54;5.10;;;1.92;;
33138;SDS011;19501;50.948;5.316;2024-03-23T14:27:19;6.40;;;1.88;;
33138;SDS011;19501;50.948;5.316;2024-03-23T14:29:46;9.05;;;1.90;;
33138;SDS011;19501;50.948;5.316;2024-03-23T14:32:12;7.95;;;2.50;;
33138;SDS011;19501;50.948;5.316;2024-03-23T14:34:38;6.80;;;2.15;;
33138;SDS011;19501;50.948;5.316;2024-03-23T14:37:05;13.98;;;2.45;;
33138;SDS011;19501;50.948;5.316;2024-03-23T14:39:31;5.88;;;2.13;;
33138;SDS011;19501;50.948;5.316;2024-03-23T14:41:59;12.52;;;3.17;;
33138;SDS011;19501;50.948;5.316;2024-03-23T14:44:26;8.50;;;2.70;;
33138;SDS011;19501;50.948;5.316;2024-03-23T14:46:53;11.93;;;3.67;;
33138;SDS011;19501;50.948;5.316;2024-03-23T14:49:20;17.75;;;4.43;;
33138;SDS011;19501;50.948;5.316;2024-03-23T14:51:46;16.60;;;4.40;;
33138;SDS011;19501;50.948;5.316;2024-03-23T14:54:12;12.80;;;4.28;;
33138;SDS011;19501;50.948;5.316;2024-03-23T14:56:38;13.88;;;4.40;;
33138;SDS011;19501;50.948;5.316;2024-03-23T14:59:04;16.40;;;4.05;;
33138;SDS011;19501;50.948;5.316;2024-03-23T15:01:31;15.50;;;4.80;;
33138;SDS011;19501;50.948;5.316;2024-03-23T15:03:57;15.23;;;3.97;;
33138;SDS011;19501;50.948;5.316;2024-03-23T15:06:22;12.13;;;3.95;;
33138;SDS011;19501;50.948;5.316;2024-03-23T15:08:48;15.13;;;4.22;;
33138;SDS011;19501;50.948;5.316;2024-03-23T15:11:14;19.05;;;4.45;;
33138;SDS011;19501;50.948;5.316;2024-03-23T15:13:43;13.05;;;4.22;;
33138;SDS011;19501;50.948;5.316;2024-03-23T15:16:08;16.80;;;4.63;;
33138;SDS011;19501;50.948;5.316;2024-03-23T15:18:35;11.32;;;3.92;;
33138;SDS011;19501;50.948;5.316;2024-03-23T15:21:01;13.85;;;3.60;;
33138;SDS011;19501;50.948;5.316;2024-03-23T15:23:30;9.93;;;3.10;;
33138;SDS011;19501;50.948;5.316;2024-03-23T15:25:56;10.93;;;2.60;;
33138;SDS011;19501;50.948;5.316;2024-03-23T15:28:26;9.10;;;2.70;;
33138;SDS011;19501;50.948;5.316;2024-03-23T15:31:03;7.43;;;2.58;;
33138;SDS011;19501;50.948;5.316;2024-03-23T15:33:32;8.75;;;2.38;;
33138;SDS011;19501;50.948;5.316;2024-03-23T15:35:58;11.50;;;2.38;;
33138;SDS011;19501;50.948;5.316;2024-03-23T15:38:24;8.70;;;2.80;;
33138;SDS011;19501;50.948;5.316;2024-03-23T15:40:51;10.43;;;2.60;;
33138;SDS011;19501;50.948;5.316;2024-03-23T15:43:17;8.63;;;2.25;;
33138;SDS011;19501;50.948;5.316;2024-03-23T15:45:43;8.48;;;2.50;;
33138;SDS011;19501;50.948;5.316;2024-03-23T15:48:08;10.35;;;2.40;;
33138;SDS011;19501;50.948;5.316;2024-03-23T15:50:34;8.32;;;2.25;;